sensor_id;sensor_type;location;lat;lon;timestamp;pressure;altitude;pressure_sealevel;temperature;humidity
788;BME280;16074;42.708;23.312;2023-02-12T00:01:07;138609.66;;;1.21;49.17
788;BME280;16074;42.708;23.312;2023-02-12T00:03:36;138618.03;;;1.25;49.19
788;BME280;16074;42.708;23.312;2023-02-12T00:06:07;138633.53;;;1.31;49.36
788;BME280;16074;42.708;23.312;2023-02-12T00:08:36;138651.47;;;1.39;49.23
788;BME280;16074;42.708;23.312;2023-02-12T00:11:09;138644.28;;;1.36;48.56
788;BME280;16074;42.708;23.312;2023-02-12T00:13:38;138645.47;;;1.36;48.96
788;BME280;16074;42.708;23.312;2023-02-12T00:16:07;138641.91;;;1.35;48.78
788;BME280;16074;42.708;23.312;2023-02-12T00:18:36;138645.47;;;1.36;48.57
788;BME280;16074;42.708;23.312;2023-02-12T00:21:06;138637.13;;;1.33;49.06
788;BME280;16074;42.708;23.312;2023-02-12T00:23:35;138619.22;;;1.25;49.18
788;BME280;16074;42.708;23.312;2023-02-12T00:26:05;138618.03;;;1.25;49.13
788;BME280;16074;42.708;23.312;2023-02-12T00:28:34;138632.34;;;1.31;49.04
788;BME280;16074;42.708;23.312;2023-02-12T00:31:06;138606.09;;;1.20;49.40
788;BME280;16074;42.708;23.312;2023-02-12T00:33:35;138560.75;;;1.01;49.76
788;BME280;16074;42.708;23.312;2023-02-12T00:36:05;138570.31;;;1.05;49.47
788;BME280;16074;42.708;23.312;2023-02-12T00:38:34;138567.91;;;1.04;49.30
788;BME280;16074;42.708;23.312;2023-02-12T00:41:03;138561.97;;;1.02;49.43
788;BME280;16074;42.708;23.312;2023-02-12T00:43:31;138561.97;;;1.02;49.59
788;BME280;16074;42.708;23.312;2023-02-12T00:45:59;138600.13;;;1.17;49.35
788;BME280;16074;42.708;23.312;2023-02-12T00:48:28;138602.50;;;1.18;49.79
788;BME280;16074;42.708;23.312;2023-02-12T00:50:56;138595.34;;;1.15;49.43
788;BME280;16074;42.708;23.312;2023-02-12T00:53:28;138575.06;;;1.07;49.38
788;BME280;16074;42.708;23.312;2023-02-12T00:55:56;138579.84;;;1.09;49.68
788;BME280;16074;42.708;23.312;2023-02-12T00:58:25;138597.72;;;1.16;49.50
788;BME280;16074;42.708;23.312;2023-02-12T01:00:53;138587.00;;;1.12;49.67
788;BME280;16074;42.708;23.312;2023-02-12T01:03:23;138587.00;;;1.12;49.57
788;BME280;16074;42.708;23.312;2023-02-12T01:05:51;138616.81;;;1.24;49.50
788;BME280;16074;42.708;23.312;2023-02-12T01:08:20;138643.09;;;1.35;50.09
788;BME280;16074;42.708;23.312;2023-02-12T01:10:55;138606.09;;;1.20;49.50
788;BME280;16074;42.708;23.312;2023-02-12T01:13:25;138606.09;;;1.20;49.75
788;BME280;16074;42.708;23.312;2023-02-12T01:16:01;138613.25;;;1.23;49.88
788;BME280;16074;42.708;23.312;2023-02-12T01:18:32;138620.44;;;1.26;49.86
788;BME280;16074;42.708;23.312;2023-02-12T01:21:00;138623.97;;;1.27;49.95
788;BME280;16074;42.708;23.312;2023-02-12T01:23:29;138610.88;;;1.22;49.78
788;BME280;16074;42.708;23.312;2023-02-12T01:25:59;138640.69;;;1.34;49.74
788;BME280;16074;42.708;23.312;2023-02-12T01:28:28;138628.75;;;1.29;49.91
788;BME280;16074;42.708;23.312;2023-02-12T01:30:56;138629.97;;;1.30;49.84
788;BME280;16074;42.708;23.312;2023-02-12T01:33:25;138625.19;;;1.28;50.11
788;BME280;16074;42.708;23.312;2023-02-12T01:35:54;138628.75;;;1.29;50.19
788;BME280;16074;42.708;23.312;2023-02-12T01:38:23;138629.97;;;1.30;50.66
788;BME280;16074;42.708;23.312;2023-02-12T01:40:51;138612.03;;;1.22;51.10
788;BME280;16074;42.708;23.312;2023-02-12T01:43:21;138601.34;;;1.18;51.25
788;BME280;16074;42.708;23.312;2023-02-12T01:45:50;138601.34;;;1.18;51.25
788;BME280;16074;42.708;23.312;2023-02-12T01:48:24;138578.69;;;1.09;51.45
788;BME280;16074;42.708;23.312;2023-02-12T01:50:55;138571.53;;;1.06;51.86
788;BME280;16074;42.708;23.312;2023-02-12T01:53:28;138552.44;;;0.98;51.85
788;BME280;16074;42.708;23.312;2023-02-12T01:56:00;138576.28;;;1.08;51.79
788;BME280;16074;42.708;23.312;2023-02-12T01:58:34;138559.59;;;1.01;51.92
788;BME280;16074;42.708;23.312;2023-02-12T02:01:11;138573.91;;;1.07;51.97
788;BME280;16074;42.708;23.312;2023-02-12T02:03:41;138538.13;;;0.92;52.69
788;BME280;16074;42.708;23.312;2023-02-12T02:06:14;138476.09;;;0.66;53.66
788;BME280;16074;42.708;23.312;2023-02-12T02:08:43;138464.16;;;0.61;53.77
788;BME280;16074;42.708;23.312;2023-02-12T02:11:12;138449.88;;;0.55;54.29
788;BME280;16074;42.708;23.312;2023-02-12T02:14:01;138443.91;;;0.52;54.69
788;BME280;16074;42.708;23.312;2023-02-12T02:16:54;138435.59;;;0.49;55.85
788;BME280;16074;42.708;23.312;2023-02-12T02:19:32;138437.97;;;0.50;55.79
788;BME280;16074;42.708;23.312;2023-02-12T02:22:20;138404.56;;;0.36;56.73
788;BME280;16074;42.708;23.312;2023-02-12T02:25:15;138395.03;;;0.32;57.06
788;BME280;16074;42.708;23.312;2023-02-12T02:28:01;138415.28;;;0.40;57.37
788;BME280;16074;42.708;23.312;2023-02-12T02:30:37;138404.56;;;0.36;57.35
788;BME280;16074;42.708;23.312;2023-02-12T02:33:21;138408.13;;;0.37;57.64
788;BME280;16074;42.708;23.312;2023-02-12T02:35:54;138392.66;;;0.31;57.96
788;BME280;16074;42.708;23.312;2023-02-12T02:38:29;138395.03;;;0.32;58.17
788;BME280;16074;42.708;23.312;2023-02-12T02:41:04;138392.66;;;0.31;58.31
788;BME280;16074;42.708;23.312;2023-02-12T02:43:39;138406.97;;;0.37;58.48
788;BME280;16074;42.708;23.312;2023-02-12T02:46:15;138390.28;;;0.30;58.35
788;BME280;16074;42.708;23.312;2023-02-12T02:48:47;138422.44;;;0.43;58.14
788;BME280;16074;42.708;23.312;2023-02-12T02:51:19;138410.53;;;0.38;58.08
788;BME280;16074;42.708;23.312;2023-02-12T02:53:53;138434.38;;;0.48;57.81
788;BME280;16074;42.708;23.312;2023-02-12T02:56:23;138448.69;;;0.54;57.79
788;BME280;16074;42.708;23.312;2023-02-12T02:58:55;138479.69;;;0.67;56.90
788;BME280;16074;42.708;23.312;2023-02-12T03:01:30;138494.00;;;0.73;56.62
788;BME280;16074;42.708;23.312;2023-02-12T03:04:02;138467.75;;;0.62;56.95
788;BME280;16074;42.708;23.312;2023-02-12T03:06:35;138483.25;;;0.69;57.06
788;BME280;16074;42.708;23.312;2023-02-12T03:09:12;138473.69;;;0.65;57.34
788;BME280;16074;42.708;23.312;2023-02-12T03:11:42;138494.00;;;0.73;56.77
788;BME280;16074;42.708;23.312;2023-02-12T03:14:13;138498.78;;;0.75;57.00
788;BME280;16074;42.708;23.312;2023-02-12T03:16:50;138498.78;;;0.75;57.41
788;BME280;16074;42.708;23.312;2023-02-12T03:19:23;138541.66;;;0.93;56.96
788;BME280;16074;42.708;23.312;2023-02-12T03:21:55;138557.19;;;1.00;56.93
788;BME280;16074;42.708;23.312;2023-02-12T03:24:29;138558.38;;;1.00;56.71
788;BME280;16074;42.708;23.312;2023-02-12T03:27:03;138529.75;;;0.88;56.69
788;BME280;16074;42.708;23.312;2023-02-12T03:29:34;138552.44;;;0.98;56.59
788;BME280;16074;42.708;23.312;2023-02-12T03:32:14;138552.44;;;0.98;56.21
788;BME280;16074;42.708;23.312;2023-02-12T03:34:50;138584.63;;;1.11;56.39
788;BME280;16074;42.708;23.312;2023-02-12T03:37:26;138576.28;;;1.08;55.75
788;BME280;16074;42.708;23.312;2023-02-12T03:39:58;138567.91;;;1.04;56.06
788;BME280;16074;42.708;23.312;2023-02-12T03:42:34;138595.34;;;1.15;55.88
788;BME280;16074;42.708;23.312;2023-02-12T03:45:08;138588.22;;;1.13;55.71
788;BME280;16074;42.708;23.312;2023-02-12T03:47:43;138603.72;;;1.19;55.55
788;BME280;16074;42.708;23.312;2023-02-12T03:50:17;138625.19;;;1.28;55.31
788;BME280;16074;42.708;23.312;2023-02-12T03:52:48;138626.38;;;1.28;55.68
788;BME280;16074;42.708;23.312;2023-02-12T03:55:17;138629.97;;;1.30;55.07
788;BME280;16074;42.708;23.312;2023-02-12T03:57:49;138647.84;;;1.37;55.05
788;BME280;16074;42.708;23.312;2023-02-12T04:00:21;138672.91;;;1.48;55.10
788;BME280;16074;42.708;23.312;2023-02-12T04:02:51;138687.22;;;1.54;54.58
788;BME280;16074;42.708;23.312;2023-02-12T04:05:22;138694.38;;;1.57;54.31
788;BME280;16074;42.708;23.312;2023-02-12T04:07:51;138681.28;;;1.51;54.49
788;BME280;16074;42.708;23.312;2023-02-12T04:10:23;138669.34;;;1.46;54.60
788;BME280;16074;42.708;23.312;2023-02-12T04:13:00;138694.38;;;1.57;54.63
788;BME280;16074;42.708;23.312;2023-02-12T04:15:42;138712.31;;;1.64;54.21
788;BME280;16074;42.708;23.312;2023-02-12T04:18:18;138739.75;;;1.76;53.75
788;BME280;16074;42.708;23.312;2023-02-12T04:20:53;138717.09;;;1.66;54.47
788;BME280;16074;42.708;23.312;2023-02-12T04:23:45;138727.81;;;1.71;54.52
788;BME280;16074;42.708;23.312;2023-02-12T04:26:22;138750.47;;;1.80;54.42
788;BME280;16074;42.708;23.312;2023-02-12T04:29:01;138760.03;;;1.84;54.56
788;BME280;16074;42.708;23.312;2023-02-12T04:31:35;138736.16;;;1.74;54.56
788;BME280;16074;42.708;23.312;2023-02-12T04:34:11;138708.72;;;1.63;54.56
788;BME280;16074;42.708;23.312;2023-02-12T04:36:44;138718.25;;;1.67;54.61
788;BME280;16074;42.708;23.312;2023-02-12T04:39:18;138700.38;;;1.59;54.93
788;BME280;16074;42.708;23.312;2023-02-12T04:41:48;138662.19;;;1.43;55.17
788;BME280;16074;42.708;23.312;2023-02-12T04:44:21;138655.00;;;1.40;55.77
788;BME280;16074;42.708;23.312;2023-02-12T04:46:50;138698.00;;;1.58;55.02
788;BME280;16074;42.708;23.312;2023-02-12T04:49:21;138641.91;;;1.35;55.60
788;BME280;16074;42.708;23.312;2023-02-12T04:51:50;138640.69;;;1.34;55.62
788;BME280;16074;42.708;23.312;2023-02-12T04:54:20;138687.22;;;1.54;55.71
788;BME280;16074;42.708;23.312;2023-02-12T04:56:49;138640.69;;;1.34;56.11
788;BME280;16074;42.708;23.312;2023-02-12T04:59:17;138657.41;;;1.41;56.05
788;BME280;16074;42.708;23.312;2023-02-12T05:01:46;138670.50;;;1.47;55.84
788;BME280;16074;42.708;23.312;2023-02-12T05:04:15;138674.13;;;1.48;56.36
788;BME280;16074;42.708;23.312;2023-02-12T05:06:46;138662.19;;;1.43;55.77
788;BME280;16074;42.708;23.312;2023-02-12T05:09:16;138668.13;;;1.46;55.41
788;BME280;16074;42.708;23.312;2023-02-12T05:11:45;138677.66;;;1.50;55.43
788;BME280;16074;42.708;23.312;2023-02-12T05:14:14;138690.81;;;1.55;55.87
788;BME280;16074;42.708;23.312;2023-02-12T05:16:42;138680.06;;;1.51;55.39
788;BME280;16074;42.708;23.312;2023-02-12T05:19:10;138692.00;;;1.56;55.13
788;BME280;16074;42.708;23.312;2023-02-12T05:21:39;138688.44;;;1.54;55.62
788;BME280;16074;42.708;23.312;2023-02-12T05:24:08;138701.53;;;1.60;55.73
788;BME280;16074;42.708;23.312;2023-02-12T05:26:37;138712.31;;;1.64;56.17
788;BME280;16074;42.708;23.312;2023-02-12T05:29:05;138714.69;;;1.65;56.04
788;BME280;16074;42.708;23.312;2023-02-12T05:31:33;138708.72;;;1.63;56.35
788;BME280;16074;42.708;23.312;2023-02-12T05:34:02;138709.94;;;1.63;55.75
788;BME280;16074;42.708;23.312;2023-02-12T05:36:30;138694.38;;;1.57;56.40
788;BME280;16074;42.708;23.312;2023-02-12T05:38:58;138700.38;;;1.59;56.92
788;BME280;16074;42.708;23.312;2023-02-12T05:41:28;138668.13;;;1.46;57.67
788;BME280;16074;42.708;23.312;2023-02-12T05:44:01;138669.34;;;1.46;58.04
788;BME280;16074;42.708;23.312;2023-02-12T05:46:29;138695.59;;;1.57;58.31
788;BME280;16074;42.708;23.312;2023-02-12T05:48:58;138672.91;;;1.48;58.84
788;BME280;16074;42.708;23.312;2023-02-12T05:51:27;138707.53;;;1.62;58.66
788;BME280;16074;42.708;23.312;2023-02-12T05:53:59;138700.38;;;1.59;59.83
788;BME280;16074;42.708;23.312;2023-02-12T05:56:31;138657.41;;;1.41;60.70
788;BME280;16074;42.708;23.312;2023-02-12T05:59:02;138649.06;;;1.38;62.33
788;BME280;16074;42.708;23.312;2023-02-12T06:01:33;138634.75;;;1.32;63.66
788;BME280;16074;42.708;23.312;2023-02-12T06:04:03;138646.69;;;1.37;66.09
788;BME280;16074;42.708;23.312;2023-02-12T06:06:33;138608.50;;;1.21;68.48
788;BME280;16074;42.708;23.312;2023-02-12T06:09:01;138651.47;;;1.39;68.87
788;BME280;16074;42.708;23.312;2023-02-12T06:11:32;138645.47;;;1.36;69.12
788;BME280;16074;42.708;23.312;2023-02-12T06:14:01;138645.47;;;1.36;69.68
788;BME280;16074;42.708;23.312;2023-02-12T06:16:30;138620.44;;;1.26;70.99
788;BME280;16074;42.708;23.312;2023-02-12T06:19:00;138616.81;;;1.24;72.47
788;BME280;16074;42.708;23.312;2023-02-12T06:21:29;138613.25;;;1.23;73.35
788;BME280;16074;42.708;23.312;2023-02-12T06:23:58;138585.84;;;1.12;75.99
788;BME280;16074;42.708;23.312;2023-02-12T06:26:26;138590.56;;;1.13;77.73
788;BME280;16074;42.708;23.312;2023-02-12T06:28:56;138577.47;;;1.08;80.22
788;BME280;16074;42.708;23.312;2023-02-12T06:31:26;138621.59;;;1.26;80.94
788;BME280;16074;42.708;23.312;2023-02-12T06:33:57;138615.66;;;1.24;81.84
788;BME280;16074;42.708;23.312;2023-02-12T06:36:26;138619.22;;;1.25;82.43
788;BME280;16074;42.708;23.312;2023-02-12T06:38:54;138608.50;;;1.21;83.50
788;BME280;16074;42.708;23.312;2023-02-12T06:41:23;138639.53;;;1.34;83.98
788;BME280;16074;42.708;23.312;2023-02-12T06:43:51;138619.22;;;1.25;84.13
788;BME280;16074;42.708;23.312;2023-02-12T06:46:21;138620.44;;;1.26;85.39
788;BME280;16074;42.708;23.312;2023-02-12T06:48:52;138626.38;;;1.28;85.22
788;BME280;16074;42.708;23.312;2023-02-12T06:51:21;138621.59;;;1.26;86.19
788;BME280;16074;42.708;23.312;2023-02-12T06:53:51;138658.56;;;1.42;85.84
788;BME280;16074;42.708;23.312;2023-02-12T06:56:20;138623.97;;;1.27;87.21
788;BME280;16074;42.708;23.312;2023-02-12T06:58:52;138627.59;;;1.29;88.13
788;BME280;16074;42.708;23.312;2023-02-12T07:01:23;138635.91;;;1.32;87.93
788;BME280;16074;42.708;23.312;2023-02-12T07:03:54;138631.16;;;1.30;88.19
788;BME280;16074;42.708;23.312;2023-02-12T07:06:24;138678.88;;;1.50;87.37
788;BME280;16074;42.708;23.312;2023-02-12T07:08:52;138662.19;;;1.43;87.00
788;BME280;16074;42.708;23.312;2023-02-12T07:11:22;138626.38;;;1.28;87.73
788;BME280;16074;42.708;23.312;2023-02-12T07:13:51;138643.09;;;1.35;88.15
788;BME280;16074;42.708;23.312;2023-02-12T07:16:19;138658.56;;;1.42;87.18
788;BME280;16074;42.708;23.312;2023-02-12T07:18:49;138643.09;;;1.35;87.33
788;BME280;16074;42.708;23.312;2023-02-12T07:21:18;138622.81;;;1.27;87.26
788;BME280;16074;42.708;23.312;2023-02-12T07:23:47;138635.91;;;1.32;87.31
788;BME280;16074;42.708;23.312;2023-02-12T07:26:18;138612.03;;;1.22;87.89
788;BME280;16074;42.708;23.312;2023-02-12T07:28:47;138635.91;;;1.32;87.67
788;BME280;16074;42.708;23.312;2023-02-12T07:31:17;138647.84;;;1.37;87.51
788;BME280;16074;42.708;23.312;2023-02-12T07:33:46;138670.50;;;1.47;87.02
788;BME280;16074;42.708;23.312;2023-02-12T07:36:18;138701.53;;;1.60;86.07
788;BME280;16074;42.708;23.312;2023-02-12T07:38:47;138705.16;;;1.61;85.63
788;BME280;16074;42.708;23.312;2023-02-12T07:41:18;138713.50;;;1.65;85.34
788;BME280;16074;42.708;23.312;2023-02-12T07:43:48;138732.59;;;1.73;85.11
788;BME280;16074;42.708;23.312;2023-02-12T07:46:22;138769.59;;;1.88;84.51
788;BME280;16074;42.708;23.312;2023-02-12T07:48:52;138782.75;;;1.94;83.97
788;BME280;16074;42.708;23.312;2023-02-12T07:51:22;138793.47;;;1.98;83.10
788;BME280;16074;42.708;23.312;2023-02-12T07:53:50;138782.75;;;1.94;83.67
788;BME280;16074;42.708;23.312;2023-02-12T07:56:20;138774.38;;;1.90;83.29
788;BME280;16074;42.708;23.312;2023-02-12T07:58:50;138775.59;;;1.91;84.10
788;BME280;16074;42.708;23.312;2023-02-12T08:01:21;138787.53;;;1.96;83.78
788;BME280;16074;42.708;23.312;2023-02-12T08:03:50;138776.75;;;1.91;84.19
788;BME280;16074;42.708;23.312;2023-02-12T08:06:20;138745.69;;;1.78;84.62
788;BME280;16074;42.708;23.312;2023-02-12T08:08:51;138756.47;;;1.83;85.16
788;BME280;16074;42.708;23.312;2023-02-12T08:11:20;138727.81;;;1.71;86.30
788;BME280;16074;42.708;23.312;2023-02-12T08:13:49;138730.19;;;1.72;86.74
788;BME280;16074;42.708;23.312;2023-02-12T08:16:18;138727.81;;;1.71;86.70
788;BME280;16074;42.708;23.312;2023-02-12T08:18:47;138718.25;;;1.67;86.70
788;BME280;16074;42.708;23.312;2023-02-12T08:21:17;138684.84;;;1.53;87.63
788;BME280;16074;42.708;23.312;2023-02-12T08:23:46;138695.59;;;1.57;87.63
788;BME280;16074;42.708;23.312;2023-02-12T08:26:20;138694.38;;;1.57;88.45
788;BME280;16074;42.708;23.312;2023-02-12T08:28:50;138657.41;;;1.41;88.92
788;BME280;16074;42.708;23.312;2023-02-12T08:31:21;138699.16;;;1.59;89.01
788;BME280;16074;42.708;23.312;2023-02-12T08:33:51;138694.38;;;1.57;88.92
788;BME280;16074;42.708;23.312;2023-02-12T08:36:21;138663.34;;;1.44;90.20
788;BME280;16074;42.708;23.312;2023-02-12T08:38:50;138671.72;;;1.47;89.54
788;BME280;16074;42.708;23.312;2023-02-12T08:41:21;138677.66;;;1.50;89.88
788;BME280;16074;42.708;23.312;2023-02-12T08:43:53;138692.00;;;1.56;89.68
788;BME280;16074;42.708;23.312;2023-02-12T08:46:24;138688.44;;;1.54;89.35
788;BME280;16074;42.708;23.312;2023-02-12T08:48:54;138706.31;;;1.62;89.12
788;BME280;16074;42.708;23.312;2023-02-12T08:51:24;138700.38;;;1.59;88.73
788;BME280;16074;42.708;23.312;2023-02-12T08:53:55;138705.16;;;1.61;88.53
788;BME280;16074;42.708;23.312;2023-02-12T08:56:26;138689.59;;;1.55;88.60
788;BME280;16074;42.708;23.312;2023-02-12T08:58:56;138700.38;;;1.59;89.06
788;BME280;16074;42.708;23.312;2023-02-12T09:01:26;138715.88;;;1.66;88.39
788;BME280;16074;42.708;23.312;2023-02-12T09:03:55;138715.88;;;1.66;88.94
788;BME280;16074;42.708;23.312;2023-02-12T09:06:24;138734.97;;;1.74;88.88
788;BME280;16074;42.708;23.312;2023-02-12T09:08:54;138748.09;;;1.79;89.12
788;BME280;16074;42.708;23.312;2023-02-12T09:11:25;138789.91;;;1.97;89.24
788;BME280;16074;42.708;23.312;2023-02-12T09:13:58;138800.63;;;2.01;88.37
788;BME280;16074;42.708;23.312;2023-02-12T09:16:27;138838.88;;;2.17;87.61
788;BME280;16074;42.708;23.312;2023-02-12T09:18:56;138808.97;;;2.05;87.47
788;BME280;16074;42.708;23.312;2023-02-12T09:21:24;138804.19;;;2.03;87.59
788;BME280;16074;42.708;23.312;2023-02-12T09:23:53;138792.31;;;1.98;87.77
788;BME280;16074;42.708;23.312;2023-02-12T09:26:23;138779.13;;;1.92;88.73
788;BME280;16074;42.708;23.312;2023-02-12T09:28:54;138822.13;;;2.10;88.20
788;BME280;16074;42.708;23.312;2023-02-12T09:31:24;138814.97;;;2.07;87.46
788;BME280;16074;42.708;23.312;2023-02-12T09:33:54;138781.53;;;1.93;87.82
788;BME280;16074;42.708;23.312;2023-02-12T09:36:24;138820.91;;;2.10;88.01
788;BME280;16074;42.708;23.312;2023-02-12T09:38:53;138789.91;;;1.97;87.73
788;BME280;16074;42.708;23.312;2023-02-12T09:41:46;138819.75;;;2.09;87.55
788;BME280;16074;42.708;23.312;2023-02-12T09:44:21;138835.25;;;2.16;87.06
788;BME280;16074;42.708;23.312;2023-02-12T09:46:55;138847.19;;;2.21;86.80
788;BME280;16074;42.708;23.312;2023-02-12T09:49:47;138846.03;;;2.20;86.60
788;BME280;16074;42.708;23.312;2023-02-12T09:52:24;138836.47;;;2.16;86.95
788;BME280;16074;42.708;23.312;2023-02-12T09:54:54;138829.31;;;2.13;86.94
788;BME280;16074;42.708;23.312;2023-02-12T09:57:25;138810.19;;;2.05;87.43
788;BME280;16074;42.708;23.312;2023-02-12T10:00:03;138866.31;;;2.29;87.30
788;BME280;16074;42.708;23.312;2023-02-12T10:02:34;138889.00;;;2.38;86.43
788;BME280;16074;42.708;23.312;2023-02-12T10:05:03;138885.44;;;2.36;86.50
788;BME280;16074;42.708;23.312;2023-02-12T10:07:43;138909.31;;;2.46;85.48
788;BME280;16074;42.708;23.312;2023-02-12T10:10:27;138896.16;;;2.41;85.86
788;BME280;16074;42.708;23.312;2023-02-12T10:13:04;138935.56;;;2.57;85.36
788;BME280;16074;42.708;23.312;2023-02-12T10:15:39;138984.59;;;2.78;84.74
788;BME280;16074;42.708;23.312;2023-02-12T10:18:35;138943.97;;;2.61;84.82
788;BME280;16074;42.708;23.312;2023-02-12T10:21:15;138979.81;;;2.76;83.56
788;BME280;16074;42.708;23.312;2023-02-12T10:24:07;138992.94;;;2.81;83.20
788;BME280;16074;42.708;23.312;2023-02-12T10:26:46;139013.25;;;2.90;83.20
788;BME280;16074;42.708;23.312;2023-02-12T10:29:18;139049.09;;;3.05;83.03
788;BME280;16074;42.708;23.312;2023-02-12T10:31:53;139024.03;;;2.94;82.71
788;BME280;16074;42.708;23.312;2023-02-12T10:34:32;139051.50;;;3.06;82.07
788;BME280;16074;42.708;23.312;2023-02-12T10:37:03;139101.72;;;3.27;81.25
788;BME280;16074;42.708;23.312;2023-02-12T10:39:35;139132.81;;;3.40;80.45
788;BME280;16074;42.708;23.312;2023-02-12T10:42:11;139199.75;;;3.67;79.82
788;BME280;16074;42.708;23.312;2023-02-12T10:44:40;139247.63;;;3.87;77.92
788;BME280;16074;42.708;23.312;2023-02-12T10:47:14;139287.09;;;4.04;76.33
788;BME280;16074;42.708;23.312;2023-02-12T10:49:46;139331.34;;;4.22;75.61
788;BME280;16074;42.708;23.312;2023-02-12T10:52:29;139378.03;;;4.42;74.19
788;BME280;16074;42.708;23.312;2023-02-12T10:55:00;139350.50;;;4.30;73.19
788;BME280;16074;42.708;23.312;2023-02-12T10:57:29;139367.28;;;4.37;73.47
788;BME280;16074;42.708;23.312;2023-02-12T11:00:22;139356.47;;;4.33;72.97
788;BME280;16074;42.708;23.312;2023-02-12T11:03:19;139324.16;;;4.19;73.65
788;BME280;16074;42.708;23.312;2023-02-12T11:05:47;139354.06;;;4.32;73.55
788;BME280;16074;42.708;23.312;2023-02-12T11:08:31;139328.97;;;4.21;73.40
788;BME280;16074;42.708;23.312;2023-02-12T11:11:05;139315.81;;;4.16;74.04
788;BME280;16074;42.708;23.312;2023-02-12T11:13:35;139355.31;;;4.32;73.78
788;BME280;16074;42.708;23.312;2023-02-12T11:16:04;139406.75;;;4.54;73.39
788;BME280;16074;42.708;23.312;2023-02-12T11:18:34;139457.06;;;4.74;72.90
788;BME280;16074;42.708;23.312;2023-02-12T11:21:05;139507.31;;;4.95;71.66
788;BME280;16074;42.708;23.312;2023-02-12T11:23:36;139552.84;;;5.14;69.97
788;BME280;16074;42.708;23.312;2023-02-12T11:26:07;139549.22;;;5.13;69.31
788;BME280;16074;42.708;23.312;2023-02-12T11:28:53;139540.88;;;5.09;69.07
788;BME280;16074;42.708;23.312;2023-02-12T11:31:23;139621.13;;;5.43;68.28
788;BME280;16074;42.708;23.312;2023-02-12T11:34:14;139630.72;;;5.47;68.29
788;BME280;16074;42.708;23.312;2023-02-12T11:36:44;139573.19;;;5.23;68.19
788;BME280;16074;42.708;23.312;2023-02-12T11:39:19;139598.38;;;5.33;67.31
788;BME280;16074;42.708;23.312;2023-02-12T11:41:50;139610.31;;;5.38;66.89
788;BME280;16074;42.708;23.312;2023-02-12T11:44:22;139574.41;;;5.23;67.72
788;BME280;16074;42.708;23.312;2023-02-12T11:46:55;139575.59;;;5.24;67.18
788;BME280;16074;42.708;23.312;2023-02-12T11:49:30;139558.81;;;5.17;67.76
788;BME280;16074;42.708;23.312;2023-02-12T11:52:02;139621.13;;;5.43;67.59
788;BME280;16074;42.708;23.312;2023-02-12T11:54:35;139640.31;;;5.51;66.15
788;BME280;16074;42.708;23.312;2023-02-12T11:57:05;139665.47;;;5.61;65.93
788;BME280;16074;42.708;23.312;2023-02-12T11:59:36;139652.28;;;5.56;65.96
788;BME280;16074;42.708;23.312;2023-02-12T12:02:16;139681.00;;;5.68;65.96
788;BME280;16074;42.708;23.312;2023-02-12T12:04:49;139681.00;;;5.68;65.74
788;BME280;16074;42.708;23.312;2023-02-12T12:07:23;139693.00;;;5.73;66.16
788;BME280;16074;42.708;23.312;2023-02-12T12:09:57;139643.88;;;5.52;65.98
788;BME280;16074;42.708;23.312;2023-02-12T12:12:35;139695.41;;;5.74;66.20
788;BME280;16074;42.708;23.312;2023-02-12T12:15:09;139666.69;;;5.62;65.85
788;BME280;16074;42.708;23.312;2023-02-12T12:18:04;139594.75;;;5.32;66.23
788;BME280;16074;42.708;23.312;2023-02-12T12:21:02;139549.22;;;5.13;67.74
788;BME280;16074;42.708;23.312;2023-02-12T12:23:38;139548.06;;;5.12;68.10
788;BME280;16074;42.708;23.312;2023-02-12T12:26:13;139489.38;;;4.88;68.90
788;BME280;16074;42.708;23.312;2023-02-12T12:28:44;139480.97;;;4.84;68.87
788;BME280;16074;42.708;23.312;2023-02-12T12:31:18;139490.56;;;4.88;68.83
788;BME280;16074;42.708;23.312;2023-02-12T12:33:50;139532.50;;;5.06;68.52
788;BME280;16074;42.708;23.312;2023-02-12T12:36:52;139457.06;;;4.74;69.82
788;BME280;16074;42.708;23.312;2023-02-12T12:39:32;139449.88;;;4.71;69.96
788;BME280;16074;42.708;23.312;2023-02-12T12:42:37;139398.41;;;4.50;71.18
788;BME280;16074;42.708;23.312;2023-02-12T12:45:24;139397.19;;;4.50;71.80
788;BME280;16074;42.708;23.312;2023-02-12T12:48:06;139419.91;;;4.59;71.93
788;BME280;16074;42.708;23.312;2023-02-12T12:51:00;139434.28;;;4.65;71.69
788;BME280;16074;42.708;23.312;2023-02-12T12:53:51;139467.81;;;4.79;71.04
788;BME280;16074;42.708;23.312;2023-02-12T12:59:46;139527.72;;;5.04;69.72
788;BME280;16074;42.708;23.312;2023-02-12T13:05:53;139540.88;;;5.09;69.19
788;BME280;16074;42.708;23.312;2023-02-12T13:08:48;139467.81;;;4.79;69.81
788;BME280;16074;42.708;23.312;2023-02-12T13:11:29;139471.44;;;4.80;70.04
788;BME280;16074;42.708;23.312;2023-02-12T13:14:12;139509.72;;;4.96;69.41
788;BME280;16074;42.708;23.312;2023-02-12T13:16:46;139524.09;;;5.02;69.14
788;BME280;16074;42.708;23.312;2023-02-12T13:19:20;139516.91;;;4.99;69.20
788;BME280;16074;42.708;23.312;2023-02-12T13:21:56;139451.03;;;4.72;70.33
788;BME280;16074;42.708;23.312;2023-02-12T13:24:33;139477.41;;;4.83;69.86
788;BME280;16074;42.708;23.312;2023-02-12T13:27:05;139495.34;;;4.90;69.96
788;BME280;16074;42.708;23.312;2023-02-12T13:29:39;139537.28;;;5.08;68.90
788;BME280;16074;42.708;23.312;2023-02-12T13:32:13;139527.72;;;5.04;68.61
788;BME280;16074;42.708;23.312;2023-02-12T13:34:43;139476.19;;;4.82;69.32
788;BME280;16074;42.708;23.312;2023-02-12T13:37:16;139491.78;;;4.89;69.67
788;BME280;16074;42.708;23.312;2023-02-12T13:39:50;139454.66;;;4.73;69.72
788;BME280;16074;42.708;23.312;2023-02-12T13:42:34;139437.91;;;4.67;70.53
788;BME280;16074;42.708;23.312;2023-02-12T13:45:16;139434.28;;;4.65;70.32
788;BME280;16074;42.708;23.312;2023-02-12T13:47:53;139428.31;;;4.63;70.43